createdAt,value
2022-10-09T00:00:16.639Z,30.028
2022-10-09T00:05:16.710Z,30.030
2022-10-09T00:10:19.749Z,30.031
2022-10-09T00:15:19.639Z,30.030
2022-10-09T00:20:20.746Z,30.031
2022-10-09T00:25:19.630Z,30.031
2022-10-09T00:30:19.628Z,30.031
2022-10-09T00:35:19.656Z,30.032
2022-10-09T00:40:19.644Z,30.033
2022-10-09T00:45:19.632Z,30.035
2022-10-09T00:50:16.730Z,30.034
2022-10-09T00:55:17.853Z,30.035
2022-10-09T01:00:19.725Z,30.036
2022-10-09T01:05:16.662Z,30.037
2022-10-09T01:10:19.674Z,30.038
2022-10-09T01:15:16.717Z,30.042
2022-10-09T01:20:16.739Z,30.042
2022-10-09T01:25:20.922Z,30.044
2022-10-09T01:30:19.665Z,30.045
2022-10-09T01:35:19.726Z,30.046
2022-10-09T01:40:16.699Z,30.047
2022-10-09T01:45:19.673Z,30.047
2022-10-09T01:50:19.717Z,30.049
2022-10-09T01:55:19.677Z,30.051
2022-10-09T02:00:20.780Z,30.051
2022-10-09T02:05:19.698Z,30.053
2022-10-09T02:10:16.748Z,30.054
2022-10-09T02:15:16.747Z,30.055
2022-10-09T02:20:19.714Z,30.057
2022-10-09T02:25:16.509Z,30.056
2022-10-09T02:30:19.700Z,30.059
2022-10-09T02:35:17.846Z,30.060
2022-10-09T02:40:19.697Z,30.059
2022-10-09T02:45:19.717Z,30.060
2022-10-09T02:50:19.680Z,30.060
2022-10-09T02:55:19.735Z,30.062
2022-10-09T03:00:19.707Z,30.062
2022-10-09T03:05:16.794Z,30.059
2022-10-09T03:10:17.791Z,30.058
2022-10-09T03:15:19.716Z,30.057
2022-10-09T03:20:19.849Z,30.056
2022-10-09T03:25:19.736Z,30.055
2022-10-09T03:30:19.696Z,30.056
2022-10-09T03:35:16.790Z,30.055
2022-10-09T03:40:20.966Z,30.056
2022-10-09T03:45:16.764Z,30.054
2022-10-09T03:50:19.746Z,30.054
2022-10-09T03:55:16.744Z,30.056
2022-10-09T04:00:18.974Z,30.056
2022-10-09T04:05:19.007Z,30.057
2022-10-09T04:10:18.976Z,30.057
2022-10-09T04:15:17.259Z,30.059
2022-10-09T04:20:16.040Z,30.058
2022-10-09T04:25:19.011Z,30.054
2022-10-09T04:30:18.959Z,30.055
2022-10-09T04:35:19.003Z,30.055
2022-10-09T04:40:19.018Z,30.055
2022-10-09T04:45:20.295Z,30.054
2022-10-09T04:50:16.029Z,30.055
2022-10-09T04:55:19.034Z,30.055
2022-10-09T05:00:19.040Z,30.056
2022-10-09T05:05:19.072Z,30.054
2022-10-09T05:10:16.047Z,30.054
2022-10-09T05:15:19.034Z,30.054
2022-10-09T05:20:20.292Z,30.054
2022-10-09T05:25:19.072Z,30.056
2022-10-09T05:30:16.070Z,30.056
2022-10-09T05:35:19.021Z,30.056
2022-10-09T05:40:19.049Z,30.056
2022-10-09T05:45:19.016Z,30.056
2022-10-09T05:50:19.022Z,30.059
2022-10-09T05:55:17.421Z,30.060
2022-10-09T06:00:19.060Z,30.059
2022-10-09T06:05:19.074Z,30.060
2022-10-09T06:10:19.007Z,30.059
2022-10-09T06:15:16.090Z,30.058
2022-10-09T06:20:19.073Z,30.058
2022-10-09T06:25:20.368Z,30.056
2022-10-09T06:30:16.055Z,30.056
2022-10-09T06:35:19.056Z,30.056
2022-10-09T06:40:16.079Z,30.056
2022-10-09T06:45:16.082Z,30.056
2022-10-09T06:50:19.070Z,30.053
2022-10-09T06:55:19.054Z,30.056
2022-10-09T07:00:20.207Z,30.054
2022-10-09T07:05:16.046Z,30.054
2022-10-09T07:10:24.234Z,30.052
2022-10-09T07:15:19.132Z,30.049
2022-10-09T07:20:19.042Z,30.050
2022-10-09T07:25:19.041Z,30.051
2022-10-09T07:30:16.096Z,30.050
2022-10-09T07:35:20.309Z,30.051
2022-10-09T07:40:19.105Z,30.051
2022-10-09T07:45:19.068Z,30.052
2022-10-09T07:50:16.077Z,30.053
2022-10-09T07:55:16.141Z,30.053
2022-10-09T08:00:16.133Z,30.054
2022-10-09T08:05:19.113Z,30.054
2022-10-09T08:10:20.340Z,30.056
2022-10-09T08:15:19.117Z,30.056
2022-10-09T08:20:16.136Z,30.055
2022-10-09T08:25:19.082Z,30.054
2022-10-09T08:30:19.179Z,30.054
2022-10-09T08:35:19.082Z,30.052
2022-10-09T08:40:19.100Z,30.049
2022-10-09T08:45:20.344Z,30.048
2022-10-09T08:50:16.126Z,30.047
2022-10-09T08:55:16.116Z,30.044
2022-10-09T09:00:19.128Z,30.044
2022-10-09T09:05:15.969Z,30.043
2022-10-09T09:10:16.004Z,30.041
2022-10-09T09:15:19.132Z,30.040
2022-10-09T09:20:17.398Z,30.037
2022-10-09T09:25:15.910Z,30.036
2022-10-09T09:30:19.173Z,30.036
2022-10-09T09:35:19.109Z,30.037
2022-10-09T09:40:54.572Z,30.032
2022-10-09T09:45:19.164Z,30.031
2022-10-09T09:50:45.695Z,30.029
2022-10-09T09:55:16.131Z,30.029
2022-10-09T10:00:19.239Z,30.026
2022-10-09T10:05:19.139Z,30.030
2022-10-09T10:10:24.758Z,30.028
2022-10-09T10:15:19.174Z,30.029
2022-10-09T10:20:19.283Z,30.028
2022-10-09T10:25:17.358Z,30.027
2022-10-09T10:30:15.959Z,30.027
2022-10-09T10:35:16.193Z,30.029
2022-10-09T10:40:19.170Z,30.030
2022-10-09T10:45:19.160Z,30.030
2022-10-09T10:50:19.200Z,30.031
2022-10-09T10:55:20.468Z,30.036
2022-10-09T11:00:19.163Z,30.037
2022-10-09T11:05:16.174Z,30.039
2022-10-09T11:10:16.257Z,30.040
2022-10-09T11:15:19.217Z,30.042
2022-10-09T11:20:19.182Z,30.042
2022-10-09T11:25:19.161Z,30.044
2022-10-09T11:30:20.433Z,30.046
2022-10-09T11:35:19.206Z,30.046
2022-10-09T11:40:16.204Z,30.050
2022-10-09T11:45:19.189Z,30.052
2022-10-09T11:50:16.020Z,30.052
2022-10-09T11:55:19.285Z,30.054
2022-10-09T12:00:19.184Z,30.055
2022-10-09T12:05:17.496Z,30.057
2022-10-09T12:10:19.174Z,30.057
2022-10-09T12:15:19.234Z,30.059
2022-10-09T12:20:19.184Z,30.061
2022-10-09T12:25:16.074Z,30.062
2022-10-09T12:30:19.224Z,30.062
2022-10-09T12:35:20.490Z,30.062
2022-10-09T12:40:19.244Z,30.062
2022-10-09T12:45:16.237Z,30.060
2022-10-09T12:50:19.232Z,30.059
2022-10-09T12:55:19.219Z,30.058
2022-10-09T13:00:16.236Z,30.056
2022-10-09T13:05:16.251Z,30.057
2022-10-09T13:10:17.536Z,30.057
2022-10-09T13:15:19.254Z,30.054
2022-10-09T13:20:19.247Z,30.054
2022-10-09T13:25:16.257Z,30.053
2022-10-09T13:30:19.238Z,30.052
2022-10-09T13:35:19.262Z,30.051
2022-10-09T13:40:20.508Z,30.051
2022-10-09T13:45:16.294Z,30.048
2022-10-09T13:50:19.229Z,30.048
2022-10-09T13:55:19.227Z,30.044
2022-10-09T14:00:19.259Z,30.044
2022-10-09T14:05:20.002Z,30.041
2022-10-09T14:10:18.261Z,30.040
2022-10-09T14:15:20.469Z,30.039
2022-10-09T14:20:19.245Z,30.036
2022-10-09T14:25:16.208Z,30.035
2022-10-09T14:30:16.259Z,30.031
2022-10-09T14:35:20.679Z,30.030
2022-10-09T14:40:19.242Z,30.028
2022-10-09T14:45:19.222Z,30.024
2022-10-09T14:50:20.418Z,30.025
2022-10-09T14:55:16.278Z,30.028
2022-10-09T15:00:19.253Z,30.026
2022-10-09T15:05:19.266Z,30.026
2022-10-09T15:10:19.262Z,30.025
2022-10-09T15:15:16.272Z,30.021
2022-10-09T15:20:16.276Z,30.024
2022-10-09T15:25:20.540Z,30.025
2022-10-09T15:30:19.281Z,30.021
2022-10-09T15:35:19.276Z,30.023
2022-10-09T15:40:16.295Z,30.018
2022-10-09T15:45:19.366Z,30.014
2022-10-09T15:50:19.282Z,30.013
2022-10-09T15:55:19.317Z,30.008
2022-10-09T16:00:20.513Z,30.008
2022-10-09T16:05:16.402Z,30.006
2022-10-09T16:10:19.306Z,30.001
2022-10-09T16:15:19.363Z,30.000
2022-10-09T16:20:19.242Z,30.003
2022-10-09T16:25:16.306Z,29.998
2022-10-09T16:30:16.342Z,29.996
2022-10-09T16:35:17.662Z,29.992
2022-10-09T16:40:21.095Z,29.991
2022-10-09T16:45:19.281Z,29.988
2022-10-09T16:50:16.347Z,29.989
2022-10-09T16:55:16.340Z,29.986
2022-10-09T17:00:19.592Z,29.985
2022-10-09T17:05:20.611Z,29.982
2022-10-09T17:10:19.289Z,29.979
2022-10-09T17:15:16.316Z,29.983
2022-10-09T17:20:16.352Z,29.982
2022-10-09T17:25:19.309Z,29.979
2022-10-09T17:30:19.352Z,29.974
2022-10-09T17:35:19.297Z,29.973
2022-10-09T17:40:20.635Z,29.973
2022-10-09T17:45:16.402Z,29.970
2022-10-09T17:50:19.368Z,29.969
2022-10-09T17:55:19.307Z,29.968
2022-10-09T18:00:21.853Z,29.968
2022-10-09T18:05:19.326Z,29.968
2022-10-09T18:10:16.322Z,29.966
2022-10-09T18:15:20.596Z,29.963
2022-10-09T18:20:19.342Z,29.965
2022-10-09T18:25:19.333Z,29.963
2022-10-09T18:30:19.327Z,29.960
2022-10-09T18:35:19.341Z,29.959
2022-10-09T18:40:16.331Z,29.960
2022-10-09T18:45:19.349Z,29.962
2022-10-09T18:50:20.618Z,29.965
2022-10-09T18:55:19.342Z,29.963
2022-10-09T19:00:16.292Z,29.964
2022-10-09T19:05:16.426Z,29.965
2022-10-09T19:10:16.421Z,29.969
2022-10-09T19:15:19.355Z,29.968
2022-10-09T19:20:19.368Z,29.967
2022-10-09T19:25:20.569Z,29.968
2022-10-09T19:30:19.348Z,29.971
2022-10-09T19:35:16.337Z,29.973
2022-10-09T19:40:19.380Z,29.971
2022-10-09T19:45:16.359Z,29.972
2022-10-09T19:50:19.337Z,29.975
2022-10-09T19:55:19.383Z,29.974
2022-10-09T20:00:20.497Z,29.972
2022-10-09T20:05:19.352Z,29.973
2022-10-09T20:10:16.439Z,29.973
2022-10-09T20:15:16.431Z,29.971
2022-10-09T20:20:16.424Z,29.972
2022-10-09T20:25:19.384Z,29.969
2022-10-09T20:30:19.438Z,29.973
2022-10-09T20:35:17.533Z,29.973
2022-10-09T20:40:16.413Z,29.973
2022-10-09T20:45:19.407Z,29.976
2022-10-09T20:50:19.413Z,29.974
2022-10-09T20:55:19.421Z,29.976
2022-10-09T21:00:16.414Z,29.976
2022-10-09T21:05:20.652Z,29.974
2022-10-09T21:10:16.451Z,29.977
2022-10-09T21:15:19.428Z,29.977
2022-10-09T21:20:19.401Z,29.978
2022-10-09T21:25:19.451Z,29.977
2022-10-09T21:30:19.373Z,29.980
2022-10-09T21:35:16.449Z,29.985
2022-10-09T21:40:20.715Z,29.986
2022-10-09T21:45:16.462Z,29.985
2022-10-09T21:50:19.422Z,29.986
2022-10-09T21:55:19.409Z,29.986
2022-10-09T22:00:19.432Z,29.988
2022-10-09T22:05:16.514Z,29.989
2022-10-09T22:10:16.505Z,29.991
2022-10-09T22:15:17.407Z,29.992
2022-10-09T22:20:19.425Z,29.991
2022-10-09T22:25:19.420Z,29.993
2022-10-09T22:30:16.481Z,29.995
2022-10-09T22:35:19.470Z,29.996
2022-10-09T22:40:19.430Z,29.998
2022-10-09T22:45:16.475Z,30.001
2022-10-09T22:50:20.670Z,30.005
2022-10-09T22:55:16.429Z,30.007
2022-10-09T23:00:16.452Z,30.006
2022-10-09T23:05:19.721Z,30.008
2022-10-09T23:10:19.490Z,30.009
2022-10-09T23:15:19.483Z,30.012
2022-10-09T23:20:19.465Z,30.015
2022-10-09T23:25:20.812Z,30.015
2022-10-09T23:30:16.544Z,30.018
2022-10-09T23:35:19.471Z,30.019
2022-10-09T23:40:19.474Z,30.019
2022-10-09T23:45:16.464Z,30.020
2022-10-09T23:50:19.472Z,30.022
2022-10-09T23:55:19.496Z,30.023
